sensor_id;sensor_type;location;lat;lon;timestamp;P1;durP1;ratioP1;P2;durP2;ratioP2
36855;SDS011;22788;51.434;6.786;2023-11-21T00:01:43;3.93;;;3.33;;
36855;SDS011;22788;51.434;6.786;2023-11-21T00:04:10;6.23;;;3.80;;
36855;SDS011;22788;51.434;6.786;2023-11-21T00:06:35;5.27;;;3.70;;
36855;SDS011;22788;51.434;6.786;2023-11-21T00:09:01;6.53;;;3.90;;
36855;SDS011;22788;51.434;6.786;2023-11-21T00:11:27;5.13;;;3.47;;
36855;SDS011;22788;51.434;6.786;2023-11-21T00:13:52;10.23;;;4.03;;
36855;SDS011;22788;51.434;6.786;2023-11-21T00:16:18;7.97;;;3.87;;
36855;SDS011;22788;51.434;6.786;2023-11-21T00:18:44;7.03;;;4.07;;
36855;SDS011;22788;51.434;6.786;2023-11-21T00:21:11;7.23;;;3.93;;
36855;SDS011;22788;51.434;6.786;2023-11-21T00:23:36;5.93;;;3.47;;
36855;SDS011;22788;51.434;6.786;2023-11-21T00:26:02;7.23;;;4.07;;
36855;SDS011;22788;51.434;6.786;2023-11-21T00:28:27;6.83;;;3.77;;
36855;SDS011;22788;51.434;6.786;2023-11-21T00:30:53;5.50;;;3.87;;
36855;SDS011;22788;51.434;6.786;2023-11-21T00:33:19;5.40;;;3.67;;
36855;SDS011;22788;51.434;6.786;2023-11-21T00:35:44;6.33;;;3.87;;
36855;SDS011;22788;51.434;6.786;2023-11-21T00:38:11;6.83;;;4.20;;
36855;SDS011;22788;51.434;6.786;2023-11-21T00:40:37;7.17;;;4.30;;
36855;SDS011;22788;51.434;6.786;2023-11-21T00:43:02;5.83;;;3.67;;
36855;SDS011;22788;51.434;6.786;2023-11-21T00:45:28;4.30;;;3.63;;
36855;SDS011;22788;51.434;6.786;2023-11-21T00:47:54;7.67;;;4.10;;
36855;SDS011;22788;51.434;6.786;2023-11-21T00:50:19;5.40;;;3.80;;
36855;SDS011;22788;51.434;6.786;2023-11-21T00:52:47;5.90;;;3.97;;
36855;SDS011;22788;51.434;6.786;2023-11-21T00:55:14;8.70;;;4.73;;
36855;SDS011;22788;51.434;6.786;2023-11-21T00:57:39;8.33;;;4.17;;
36855;SDS011;22788;51.434;6.786;2023-11-21T01:00:05;7.03;;;4.40;;
36855;SDS011;22788;51.434;6.786;2023-11-21T01:02:32;6.63;;;3.90;;
36855;SDS011;22788;51.434;6.786;2023-11-21T01:04:57;5.97;;;4.27;;
36855;SDS011;22788;51.434;6.786;2023-11-21T01:07:23;8.93;;;4.43;;
36855;SDS011;22788;51.434;6.786;2023-11-21T01:09:48;6.07;;;4.20;;
36855;SDS011;22788;51.434;6.786;2023-11-21T01:12:15;7.63;;;4.03;;
36855;SDS011;22788;51.434;6.786;2023-11-21T01:14:41;7.70;;;3.87;;
36855;SDS011;22788;51.434;6.786;2023-11-21T01:17:07;10.37;;;4.30;;
36855;SDS011;22788;51.434;6.786;2023-11-21T01:19:32;6.40;;;4.20;;
36855;SDS011;22788;51.434;6.786;2023-11-21T01:21:58;6.53;;;4.87;;
36855;SDS011;22788;51.434;6.786;2023-11-21T01:24:23;5.83;;;3.87;;
36855;SDS011;22788;51.434;6.786;2023-11-21T01:26:49;6.73;;;4.03;;
36855;SDS011;22788;51.434;6.786;2023-11-21T01:29:16;6.10;;;4.27;;
36855;SDS011;22788;51.434;6.786;2023-11-21T01:31:42;7.17;;;4.70;;
36855;SDS011;22788;51.434;6.786;2023-11-21T01:34:07;7.30;;;4.57;;
36855;SDS011;22788;51.434;6.786;2023-11-21T01:36:33;9.10;;;4.27;;
36855;SDS011;22788;51.434;6.786;2023-11-21T01:38:59;7.20;;;4.43;;
36855;SDS011;22788;51.434;6.786;2023-11-21T01:41:25;6.73;;;4.30;;
36855;SDS011;22788;51.434;6.786;2023-11-21T01:43:50;4.87;;;3.77;;
36855;SDS011;22788;51.434;6.786;2023-11-21T01:46:17;10.10;;;4.80;;
36855;SDS011;22788;51.434;6.786;2023-11-21T01:48:43;6.10;;;4.47;;
36855;SDS011;22788;51.434;6.786;2023-11-21T01:51:08;7.00;;;4.47;;
36855;SDS011;22788;51.434;6.786;2023-11-21T01:53:34;10.70;;;4.80;;
36855;SDS011;22788;51.434;6.786;2023-11-21T01:56:00;5.60;;;4.23;;
36855;SDS011;22788;51.434;6.786;2023-11-21T01:58:26;8.20;;;4.67;;
36855;SDS011;22788;51.434;6.786;2023-11-21T02:00:51;6.80;;;4.33;;
36855;SDS011;22788;51.434;6.786;2023-11-21T02:03:18;7.23;;;4.13;;
36855;SDS011;22788;51.434;6.786;2023-11-21T02:05:44;6.60;;;4.57;;
36855;SDS011;22788;51.434;6.786;2023-11-21T02:08:09;6.77;;;4.37;;
36855;SDS011;22788;51.434;6.786;2023-11-21T02:10:35;7.20;;;4.30;;
36855;SDS011;22788;51.434;6.786;2023-11-21T02:13:00;8.57;;;4.50;;
36855;SDS011;22788;51.434;6.786;2023-11-21T02:15:26;6.97;;;4.40;;
36855;SDS011;22788;51.434;6.786;2023-11-21T02:17:52;8.23;;;4.50;;
36855;SDS011;22788;51.434;6.786;2023-11-21T02:20:19;9.53;;;4.93;;
36855;SDS011;22788;51.434;6.786;2023-11-21T02:22:48;8.23;;;4.70;;
36855;SDS011;22788;51.434;6.786;2023-11-21T02:25:15;9.17;;;4.20;;
36855;SDS011;22788;51.434;6.786;2023-11-21T02:27:40;6.20;;;4.23;;
36855;SDS011;22788;51.434;6.786;2023-11-21T02:30:06;9.57;;;4.60;;
36855;SDS011;22788;51.434;6.786;2023-11-21T02:32:32;6.07;;;4.47;;
36855;SDS011;22788;51.434;6.786;2023-11-21T02:34:58;8.20;;;4.40;;
36855;SDS011;22788;51.434;6.786;2023-11-21T02:37:24;7.07;;;4.40;;
36855;SDS011;22788;51.434;6.786;2023-11-21T02:39:51;7.13;;;4.67;;
36855;SDS011;22788;51.434;6.786;2023-11-21T02:42:16;9.77;;;4.87;;
36855;SDS011;22788;51.434;6.786;2023-11-21T02:44:42;6.23;;;4.40;;
36855;SDS011;22788;51.434;6.786;2023-11-21T02:47:07;6.50;;;4.63;;
36855;SDS011;22788;51.434;6.786;2023-11-21T02:49:33;8.57;;;4.83;;
36855;SDS011;22788;51.434;6.786;2023-11-21T02:51:58;8.67;;;4.77;;
36855;SDS011;22788;51.434;6.786;2023-11-21T02:54:24;7.90;;;4.83;;
36855;SDS011;22788;51.434;6.786;2023-11-21T02:56:51;7.67;;;4.37;;
36855;SDS011;22788;51.434;6.786;2023-11-21T02:59:17;8.83;;;4.80;;
36855;SDS011;22788;51.434;6.786;2023-11-21T03:01:42;6.33;;;4.63;;
36855;SDS011;22788;51.434;6.786;2023-11-21T03:04:08;5.70;;;4.63;;
36855;SDS011;22788;51.434;6.786;2023-11-21T03:06:33;7.30;;;5.20;;
36855;SDS011;22788;51.434;6.786;2023-11-21T03:08:59;7.20;;;4.60;;
36855;SDS011;22788;51.434;6.786;2023-11-21T03:11:25;7.10;;;5.03;;
36855;SDS011;22788;51.434;6.786;2023-11-21T03:13:52;6.37;;;4.57;;
36855;SDS011;22788;51.434;6.786;2023-11-21T03:16:18;8.47;;;5.07;;
36855;SDS011;22788;51.434;6.786;2023-11-21T03:18:43;7.97;;;4.80;;
36855;SDS011;22788;51.434;6.786;2023-11-21T03:21:09;8.53;;;5.20;;
36855;SDS011;22788;51.434;6.786;2023-11-21T03:23:34;7.53;;;4.50;;
36855;SDS011;22788;51.434;6.786;2023-11-21T03:26:01;8.17;;;5.43;;
36855;SDS011;22788;51.434;6.786;2023-11-21T03:28:26;6.30;;;4.90;;
36855;SDS011;22788;51.434;6.786;2023-11-21T03:30:53;5.47;;;4.47;;
36855;SDS011;22788;51.434;6.786;2023-11-21T03:33:19;8.77;;;5.47;;
36855;SDS011;22788;51.434;6.786;2023-11-21T03:35:45;10.67;;;4.80;;
36855;SDS011;22788;51.434;6.786;2023-11-21T03:38:10;8.53;;;5.03;;
36855;SDS011;22788;51.434;6.786;2023-11-21T03:40:36;6.17;;;4.37;;
36855;SDS011;22788;51.434;6.786;2023-11-21T03:43:02;11.03;;;5.17;;
36855;SDS011;22788;51.434;6.786;2023-11-21T03:45:27;7.63;;;4.90;;
36855;SDS011;22788;51.434;6.786;2023-11-21T03:47:54;8.60;;;4.63;;
36855;SDS011;22788;51.434;6.786;2023-11-21T03:50:20;6.63;;;4.67;;
36855;SDS011;22788;51.434;6.786;2023-11-21T03:52:45;7.60;;;4.77;;
36855;SDS011;22788;51.434;6.786;2023-11-21T03:55:11;10.17;;;4.93;;
36855;SDS011;22788;51.434;6.786;2023-11-21T03:57:36;11.90;;;5.10;;
36855;SDS011;22788;51.434;6.786;2023-11-21T04:00:02;7.23;;;5.10;;
36855;SDS011;22788;51.434;6.786;2023-11-21T04:02:28;8.13;;;5.10;;
36855;SDS011;22788;51.434;6.786;2023-11-21T04:04:55;7.20;;;4.90;;
36855;SDS011;22788;51.434;6.786;2023-11-21T04:07:21;7.30;;;4.90;;
36855;SDS011;22788;51.434;6.786;2023-11-21T04:09:47;5.63;;;4.20;;
36855;SDS011;22788;51.434;6.786;2023-11-21T04:12:12;7.00;;;4.83;;
36855;SDS011;22788;51.434;6.786;2023-11-21T04:14:38;8.20;;;5.27;;
36855;SDS011;22788;51.434;6.786;2023-11-21T04:17:04;7.43;;;5.33;;
36855;SDS011;22788;51.434;6.786;2023-11-21T04:19:29;8.10;;;5.03;;
36855;SDS011;22788;51.434;6.786;2023-11-21T04:21:56;6.50;;;4.60;;
36855;SDS011;22788;51.434;6.786;2023-11-21T04:24:22;8.40;;;5.27;;
36855;SDS011;22788;51.434;6.786;2023-11-21T04:26:50;9.37;;;4.97;;
36855;SDS011;22788;51.434;6.786;2023-11-21T04:29:16;7.67;;;5.20;;
36855;SDS011;22788;51.434;6.786;2023-11-21T04:31:42;5.80;;;4.80;;
36855;SDS011;22788;51.434;6.786;2023-11-21T04:34:07;9.33;;;5.27;;
36855;SDS011;22788;51.434;6.786;2023-11-21T04:36:33;8.70;;;5.33;;
36855;SDS011;22788;51.434;6.786;2023-11-21T04:39:00;8.87;;;5.60;;
36855;SDS011;22788;51.434;6.786;2023-11-21T04:41:26;8.13;;;5.00;;
36855;SDS011;22788;51.434;6.786;2023-11-21T04:43:52;9.30;;;5.17;;
36855;SDS011;22788;51.434;6.786;2023-11-21T04:46:17;9.00;;;5.40;;
36855;SDS011;22788;51.434;6.786;2023-11-21T04:48:43;7.87;;;4.97;;
36855;SDS011;22788;51.434;6.786;2023-11-21T04:51:09;9.33;;;5.40;;
36855;SDS011;22788;51.434;6.786;2023-11-21T04:53:34;8.50;;;5.37;;
36855;SDS011;22788;51.434;6.786;2023-11-21T04:56:01;7.37;;;5.00;;
36855;SDS011;22788;51.434;6.786;2023-11-21T04:58:27;7.73;;;5.43;;
36855;SDS011;22788;51.434;6.786;2023-11-21T05:00:53;8.77;;;5.17;;
36855;SDS011;22788;51.434;6.786;2023-11-21T05:03:18;8.70;;;5.43;;
36855;SDS011;22788;51.434;6.786;2023-11-21T05:05:44;11.10;;;5.77;;
36855;SDS011;22788;51.434;6.786;2023-11-21T05:08:09;9.63;;;5.53;;
36855;SDS011;22788;51.434;6.786;2023-11-21T05:10:35;5.67;;;4.63;;
36855;SDS011;22788;51.434;6.786;2023-11-21T05:13:02;12.33;;;4.97;;
36855;SDS011;22788;51.434;6.786;2023-11-21T05:15:28;9.90;;;5.27;;
36855;SDS011;22788;51.434;6.786;2023-11-21T05:17:53;9.67;;;5.23;;
36855;SDS011;22788;51.434;6.786;2023-11-21T05:20:19;10.77;;;5.77;;
36855;SDS011;22788;51.434;6.786;2023-11-21T05:22:45;6.77;;;4.97;;
36855;SDS011;22788;51.434;6.786;2023-11-21T05:25:11;6.40;;;5.03;;
36855;SDS011;22788;51.434;6.786;2023-11-21T05:27:37;8.43;;;5.40;;
36855;SDS011;22788;51.434;6.786;2023-11-21T05:30:05;9.30;;;5.80;;
36855;SDS011;22788;51.434;6.786;2023-11-21T05:32:31;9.60;;;5.23;;
36855;SDS011;22788;51.434;6.786;2023-11-21T05:34:57;11.47;;;5.33;;
36855;SDS011;22788;51.434;6.786;2023-11-21T05:37:23;7.30;;;4.90;;
36855;SDS011;22788;51.434;6.786;2023-11-21T05:39:48;6.33;;;5.07;;
36855;SDS011;22788;51.434;6.786;2023-11-21T05:42:14;7.50;;;5.33;;
36855;SDS011;22788;51.434;6.786;2023-11-21T05:44:41;9.07;;;5.10;;
36855;SDS011;22788;51.434;6.786;2023-11-21T05:47:08;9.53;;;5.70;;
36855;SDS011;22788;51.434;6.786;2023-11-21T05:49:34;10.93;;;5.70;;
36855;SDS011;22788;51.434;6.786;2023-11-21T05:52:00;8.40;;;5.30;;
36855;SDS011;22788;51.434;6.786;2023-11-21T05:54:25;8.20;;;5.13;;
36855;SDS011;22788;51.434;6.786;2023-11-21T05:56:51;10.63;;;4.90;;
36855;SDS011;22788;51.434;6.786;2023-11-21T05:59:17;8.50;;;5.40;;
36855;SDS011;22788;51.434;6.786;2023-11-21T06:01:42;7.27;;;5.20;;
36855;SDS011;22788;51.434;6.786;2023-11-21T06:04:09;9.50;;;5.77;;
36855;SDS011;22788;51.434;6.786;2023-11-21T06:06:35;11.90;;;5.77;;
36855;SDS011;22788;51.434;6.786;2023-11-21T06:09:01;11.77;;;5.50;;
36855;SDS011;22788;51.434;6.786;2023-11-21T06:11:26;8.53;;;5.53;;
36855;SDS011;22788;51.434;6.786;2023-11-21T06:16:55;11.43;;;5.70;;
36855;SDS011;22788;51.434;6.786;2023-11-21T06:19:22;10.30;;;5.90;;
36855;SDS011;22788;51.434;6.786;2023-11-21T06:21:48;11.97;;;6.87;;
36855;SDS011;22788;51.434;6.786;2023-11-21T06:24:13;17.80;;;9.43;;
36855;SDS011;22788;51.434;6.786;2023-11-21T06:26:39;9.03;;;6.60;;
36855;SDS011;22788;51.434;6.786;2023-11-21T06:29:04;15.43;;;8.20;;
36855;SDS011;22788;51.434;6.786;2023-11-21T06:31:30;23.30;;;9.27;;
36855;SDS011;22788;51.434;6.786;2023-11-21T06:33:55;16.57;;;8.73;;
36855;SDS011;22788;51.434;6.786;2023-11-21T06:36:22;12.43;;;8.20;;
36855;SDS011;22788;51.434;6.786;2023-11-21T06:38:48;18.30;;;9.13;;
36855;SDS011;22788;51.434;6.786;2023-11-21T06:41:14;16.97;;;8.83;;
36855;SDS011;22788;51.434;6.786;2023-11-21T06:43:39;17.73;;;10.23;;
36855;SDS011;22788;51.434;6.786;2023-11-21T06:46:05;32.17;;;16.73;;
36855;SDS011;22788;51.434;6.786;2023-11-21T06:48:31;23.63;;;13.17;;
36855;SDS011;22788;51.434;6.786;2023-11-21T06:50:57;22.13;;;11.43;;
36855;SDS011;22788;51.434;6.786;2023-11-21T06:53:24;21.93;;;12.53;;
36855;SDS011;22788;51.434;6.786;2023-11-21T06:55:50;20.97;;;11.13;;
36855;SDS011;22788;51.434;6.786;2023-11-21T06:58:16;21.90;;;11.53;;
36855;SDS011;22788;51.434;6.786;2023-11-21T07:00:42;27.63;;;12.83;;
36855;SDS011;22788;51.434;6.786;2023-11-21T07:03:08;20.93;;;11.73;;
36855;SDS011;22788;51.434;6.786;2023-11-21T07:05:34;26.10;;;13.13;;
36855;SDS011;22788;51.434;6.786;2023-11-21T07:08:00;20.20;;;11.63;;
36855;SDS011;22788;51.434;6.786;2023-11-21T07:10:27;18.87;;;11.70;;
36855;SDS011;22788;51.434;6.786;2023-11-21T07:12:53;22.20;;;12.40;;
36855;SDS011;22788;51.434;6.786;2023-11-21T07:15:19;25.43;;;12.27;;
36855;SDS011;22788;51.434;6.786;2023-11-21T07:17:45;20.10;;;11.07;;
36855;SDS011;22788;51.434;6.786;2023-11-21T07:20:11;20.23;;;11.70;;
36855;SDS011;22788;51.434;6.786;2023-11-21T07:22:37;21.43;;;11.80;;
36855;SDS011;22788;51.434;6.786;2023-11-21T07:25:03;21.83;;;11.43;;
36855;SDS011;22788;51.434;6.786;2023-11-21T07:27:31;23.83;;;13.17;;
36855;SDS011;22788;51.434;6.786;2023-11-21T07:29:57;21.73;;;11.30;;
36855;SDS011;22788;51.434;6.786;2023-11-21T07:32:23;21.87;;;12.57;;
36855;SDS011;22788;51.434;6.786;2023-11-21T07:34:48;21.83;;;12.23;;
36855;SDS011;22788;51.434;6.786;2023-11-21T07:37:14;22.60;;;12.20;;
36855;SDS011;22788;51.434;6.786;2023-11-21T07:39:41;24.43;;;12.67;;
36855;SDS011;22788;51.434;6.786;2023-11-21T07:42:07;22.70;;;11.30;;
36855;SDS011;22788;51.434;6.786;2023-11-21T07:44:34;21.43;;;12.03;;
36855;SDS011;22788;51.434;6.786;2023-11-21T07:47:00;21.27;;;11.97;;
36855;SDS011;22788;51.434;6.786;2023-11-21T07:49:26;22.80;;;12.37;;
36855;SDS011;22788;51.434;6.786;2023-11-21T07:51:52;23.97;;;11.77;;
36855;SDS011;22788;51.434;6.786;2023-11-21T07:54:18;23.07;;;11.77;;
36855;SDS011;22788;51.434;6.786;2023-11-21T07:56:44;23.77;;;12.67;;
36855;SDS011;22788;51.434;6.786;2023-11-21T07:59:09;25.90;;;13.23;;
36855;SDS011;22788;51.434;6.786;2023-11-21T08:01:37;29.70;;;13.77;;
36855;SDS011;22788;51.434;6.786;2023-11-21T08:04:03;24.47;;;12.77;;
36855;SDS011;22788;51.434;6.786;2023-11-21T08:06:29;25.57;;;13.33;;
36855;SDS011;22788;51.434;6.786;2023-11-21T08:08:55;24.87;;;12.77;;
36855;SDS011;22788;51.434;6.786;2023-11-21T08:11:21;26.50;;;14.87;;
36855;SDS011;22788;51.434;6.786;2023-11-21T08:13:47;24.63;;;13.77;;
36855;SDS011;22788;51.434;6.786;2023-11-21T08:16:13;26.97;;;14.87;;
36855;SDS011;22788;51.434;6.786;2023-11-21T08:18:40;24.47;;;13.10;;
36855;SDS011;22788;51.434;6.786;2023-11-21T08:21:06;29.30;;;14.53;;
36855;SDS011;22788;51.434;6.786;2023-11-21T08:23:32;26.67;;;13.87;;
36855;SDS011;22788;51.434;6.786;2023-11-21T08:25:58;24.13;;;13.03;;
36855;SDS011;22788;51.434;6.786;2023-11-21T08:28:24;29.10;;;14.53;;
36855;SDS011;22788;51.434;6.786;2023-11-21T08:30:50;22.03;;;12.20;;
36855;SDS011;22788;51.434;6.786;2023-11-21T08:33:16;30.73;;;14.07;;
36855;SDS011;22788;51.434;6.786;2023-11-21T08:35:43;25.77;;;12.33;;
36855;SDS011;22788;51.434;6.786;2023-11-21T08:38:09;26.23;;;13.00;;
36855;SDS011;22788;51.434;6.786;2023-11-21T08:40:35;21.60;;;12.80;;
36855;SDS011;22788;51.434;6.786;2023-11-21T08:43:01;24.43;;;12.37;;
36855;SDS011;22788;51.434;6.786;2023-11-21T08:45:27;24.60;;;12.73;;
36855;SDS011;22788;51.434;6.786;2023-11-21T08:47:53;22.17;;;12.10;;
36855;SDS011;22788;51.434;6.786;2023-11-21T08:50:19;20.53;;;12.63;;
36855;SDS011;22788;51.434;6.786;2023-11-21T08:52:47;21.53;;;12.53;;
36855;SDS011;22788;51.434;6.786;2023-11-21T08:55:13;22.23;;;12.97;;
36855;SDS011;22788;51.434;6.786;2023-11-21T08:57:39;20.80;;;12.37;;
36855;SDS011;22788;51.434;6.786;2023-11-21T09:00:05;24.20;;;13.50;;
36855;SDS011;22788;51.434;6.786;2023-11-21T09:02:32;29.60;;;14.23;;
36855;SDS011;22788;51.434;6.786;2023-11-21T09:04:58;24.00;;;13.20;;
36855;SDS011;22788;51.434;6.786;2023-11-21T09:07:23;25.97;;;14.23;;
36855;SDS011;22788;51.434;6.786;2023-11-21T09:09:51;25.13;;;13.00;;
36855;SDS011;22788;51.434;6.786;2023-11-21T09:12:17;23.00;;;13.03;;
36855;SDS011;22788;51.434;6.786;2023-11-21T09:14:43;22.67;;;12.47;;
36855;SDS011;22788;51.434;6.786;2023-11-21T09:17:09;20.50;;;12.37;;
36855;SDS011;22788;51.434;6.786;2023-11-21T09:19:35;26.87;;;12.70;;
36855;SDS011;22788;51.434;6.786;2023-11-21T09:22:01;26.23;;;12.93;;
36855;SDS011;22788;51.434;6.786;2023-11-21T09:24:27;27.83;;;13.67;;
36855;SDS011;22788;51.434;6.786;2023-11-21T09:26:54;24.07;;;12.03;;
36855;SDS011;22788;51.434;6.786;2023-11-21T09:29:20;26.67;;;12.67;;
36855;SDS011;22788;51.434;6.786;2023-11-21T09:31:46;24.83;;;13.27;;
36855;SDS011;22788;51.434;6.786;2023-11-21T09:34:12;25.53;;;12.67;;
36855;SDS011;22788;51.434;6.786;2023-11-21T09:36:38;26.70;;;13.73;;
36855;SDS011;22788;51.434;6.786;2023-11-21T09:39:04;24.73;;;13.37;;
36855;SDS011;22788;51.434;6.786;2023-11-21T09:41:32;28.20;;;13.70;;
36855;SDS011;22788;51.434;6.786;2023-11-21T09:44:01;26.70;;;13.20;;
36855;SDS011;22788;51.434;6.786;2023-11-21T09:46:28;22.53;;;14.07;;
36855;SDS011;22788;51.434;6.786;2023-11-21T09:48:54;24.47;;;12.53;;
36855;SDS011;22788;51.434;6.786;2023-11-21T09:51:21;22.73;;;13.33;;
36855;SDS011;22788;51.434;6.786;2023-11-21T09:53:50;28.47;;;14.07;;
36855;SDS011;22788;51.434;6.786;2023-11-21T09:56:16;31.57;;;15.73;;
36855;SDS011;22788;51.434;6.786;2023-11-21T09:58:42;29.70;;;14.90;;
36855;SDS011;22788;51.434;6.786;2023-11-21T10:01:09;29.53;;;15.27;;
36855;SDS011;22788;51.434;6.786;2023-11-21T10:03:35;27.27;;;14.77;;
36855;SDS011;22788;51.434;6.786;2023-11-21T10:06:01;30.33;;;15.17;;
36855;SDS011;22788;51.434;6.786;2023-11-21T10:08:28;28.47;;;14.93;;
36855;SDS011;22788;51.434;6.786;2023-11-21T10:10:55;32.53;;;16.07;;
36855;SDS011;22788;51.434;6.786;2023-11-21T10:13:21;27.90;;;14.23;;
36855;SDS011;22788;51.434;6.786;2023-11-21T10:15:48;27.83;;;15.03;;
36855;SDS011;22788;51.434;6.786;2023-11-21T10:18:17;30.00;;;15.13;;
36855;SDS011;22788;51.434;6.786;2023-11-21T10:20:43;30.83;;;15.50;;
36855;SDS011;22788;51.434;6.786;2023-11-21T10:23:09;32.13;;;17.53;;
36855;SDS011;22788;51.434;6.786;2023-11-21T10:25:35;32.83;;;16.77;;
36855;SDS011;22788;51.434;6.786;2023-11-21T10:28:01;33.93;;;16.07;;
36855;SDS011;22788;51.434;6.786;2023-11-21T10:30:28;36.53;;;17.67;;
36855;SDS011;22788;51.434;6.786;2023-11-21T10:32:56;31.30;;;17.50;;
36855;SDS011;22788;51.434;6.786;2023-11-21T10:35:25;32.27;;;15.73;;
36855;SDS011;22788;51.434;6.786;2023-11-21T10:38:03;33.13;;;18.17;;
36855;SDS011;22788;51.434;6.786;2023-11-21T10:40:29;40.53;;;18.10;;
36855;SDS011;22788;51.434;6.786;2023-11-21T10:42:55;44.50;;;19.40;;
36855;SDS011;22788;51.434;6.786;2023-11-21T10:45:31;50.03;;;22.03;;
36855;SDS011;22788;51.434;6.786;2023-11-21T10:47:57;39.13;;;19.23;;
36855;SDS011;22788;51.434;6.786;2023-11-21T10:50:23;40.83;;;18.50;;
36855;SDS011;22788;51.434;6.786;2023-11-21T10:52:51;34.93;;;17.93;;
36855;SDS011;22788;51.434;6.786;2023-11-21T10:55:17;46.70;;;20.77;;
36855;SDS011;22788;51.434;6.786;2023-11-21T10:57:43;46.77;;;20.43;;
36855;SDS011;22788;51.434;6.786;2023-11-21T11:00:10;35.80;;;18.00;;
36855;SDS011;22788;51.434;6.786;2023-11-21T11:02:36;56.13;;;25.07;;
36855;SDS011;22788;51.434;6.786;2023-11-21T11:05:02;39.43;;;18.27;;
36855;SDS011;22788;51.434;6.786;2023-11-21T11:07:29;43.67;;;19.83;;
36855;SDS011;22788;51.434;6.786;2023-11-21T11:09:56;55.73;;;24.90;;
36855;SDS011;22788;51.434;6.786;2023-11-21T11:12:24;48.17;;;22.87;;
36855;SDS011;22788;51.434;6.786;2023-11-21T11:14:50;64.30;;;28.53;;
36855;SDS011;22788;51.434;6.786;2023-11-21T11:17:16;56.77;;;25.00;;
36855;SDS011;22788;51.434;6.786;2023-11-21T11:19:42;58.40;;;25.20;;
36855;SDS011;22788;51.434;6.786;2023-11-21T11:22:11;57.97;;;25.60;;
36855;SDS011;22788;51.434;6.786;2023-11-21T11:27:39;60.67;;;25.77;;
36855;SDS011;22788;51.434;6.786;2023-11-21T11:30:11;56.17;;;26.57;;
36855;SDS011;22788;51.434;6.786;2023-11-21T11:32:43;47.93;;;22.57;;
36855;SDS011;22788;51.434;6.786;2023-11-21T11:35:16;54.00;;;25.17;;
36855;SDS011;22788;51.434;6.786;2023-11-21T11:37:42;60.47;;;26.00;;
36855;SDS011;22788;51.434;6.786;2023-11-21T11:40:10;58.60;;;25.60;;
36855;SDS011;22788;51.434;6.786;2023-11-21T11:42:38;61.17;;;26.47;;
36855;SDS011;22788;51.434;6.786;2023-11-21T11:45:16;49.83;;;24.17;;
36855;SDS011;22788;51.434;6.786;2023-11-21T11:47:43;57.93;;;26.27;;
36855;SDS011;22788;51.434;6.786;2023-11-21T11:50:09;57.87;;;25.77;;
36855;SDS011;22788;51.434;6.786;2023-11-21T11:52:36;50.73;;;26.43;;
36855;SDS011;22788;51.434;6.786;2023-11-21T11:55:02;55.37;;;25.67;;
36855;SDS011;22788;51.434;6.786;2023-11-21T11:57:29;59.77;;;26.73;;
36855;SDS011;22788;51.434;6.786;2023-11-21T12:00:10;66.03;;;30.20;;
36855;SDS011;22788;51.434;6.786;2023-11-21T12:02:36;56.77;;;26.20;;
36855;SDS011;22788;51.434;6.786;2023-11-21T12:05:06;60.10;;;27.90;;
36855;SDS011;22788;51.434;6.786;2023-11-21T12:07:38;63.47;;;27.90;;
36855;SDS011;22788;51.434;6.786;2023-11-21T12:10:05;58.83;;;28.93;;
36855;SDS011;22788;51.434;6.786;2023-11-21T12:12:31;55.50;;;25.70;;
36855;SDS011;22788;51.434;6.786;2023-11-21T12:14:57;65.37;;;30.60;;
36855;SDS011;22788;51.434;6.786;2023-11-21T12:17:24;56.53;;;25.87;;
36855;SDS011;22788;51.434;6.786;2023-11-21T12:19:50;50.30;;;23.63;;
36855;SDS011;22788;51.434;6.786;2023-11-21T12:22:16;52.33;;;25.50;;
36855;SDS011;22788;51.434;6.786;2023-11-21T12:24:42;51.50;;;25.73;;
36855;SDS011;22788;51.434;6.786;2023-11-21T12:27:08;54.23;;;25.37;;
36855;SDS011;22788;51.434;6.786;2023-11-21T12:29:34;54.60;;;25.47;;
36855;SDS011;22788;51.434;6.786;2023-11-21T12:32:00;60.00;;;26.60;;
36855;SDS011;22788;51.434;6.786;2023-11-21T12:34:27;47.37;;;24.07;;
36855;SDS011;22788;51.434;6.786;2023-11-21T12:36:53;50.67;;;23.57;;
36855;SDS011;22788;51.434;6.786;2023-11-21T12:39:19;54.37;;;24.50;;
36855;SDS011;22788;51.434;6.786;2023-11-21T12:41:45;53.50;;;23.73;;
36855;SDS011;22788;51.434;6.786;2023-11-21T12:44:12;45.30;;;22.70;;
36855;SDS011;22788;51.434;6.786;2023-11-21T12:46:40;46.67;;;23.23;;
36855;SDS011;22788;51.434;6.786;2023-11-21T12:49:06;48.77;;;21.57;;
36855;SDS011;22788;51.434;6.786;2023-11-21T12:51:33;46.30;;;21.40;;
36855;SDS011;22788;51.434;6.786;2023-11-21T12:53:59;49.77;;;23.60;;
36855;SDS011;22788;51.434;6.786;2023-11-21T12:56:25;47.60;;;21.70;;
36855;SDS011;22788;51.434;6.786;2023-11-21T12:58:53;53.50;;;23.83;;
36855;SDS011;22788;51.434;6.786;2023-11-21T13:01:19;45.20;;;19.90;;
36855;SDS011;22788;51.434;6.786;2023-11-21T13:03:48;38.90;;;18.80;;
36855;SDS011;22788;51.434;6.786;2023-11-21T13:06:14;43.60;;;21.20;;
36855;SDS011;22788;51.434;6.786;2023-11-21T13:08:41;37.57;;;19.63;;
36855;SDS011;22788;51.434;6.786;2023-11-21T13:11:09;42.53;;;19.83;;
36855;SDS011;22788;51.434;6.786;2023-11-21T13:13:36;37.47;;;18.57;;
36855;SDS011;22788;51.434;6.786;2023-11-21T13:16:02;34.17;;;17.50;;
36855;SDS011;22788;51.434;6.786;2023-11-21T13:18:28;35.83;;;19.17;;
36855;SDS011;22788;51.434;6.786;2023-11-21T13:20:55;34.47;;;18.07;;
36855;SDS011;22788;51.434;6.786;2023-11-21T13:23:21;31.90;;;16.60;;
36855;SDS011;22788;51.434;6.786;2023-11-21T13:25:48;33.43;;;17.10;;
36855;SDS011;22788;51.434;6.786;2023-11-21T13:28:14;31.87;;;15.20;;
36855;SDS011;22788;51.434;6.786;2023-11-21T13:30:40;23.77;;;13.63;;
36855;SDS011;22788;51.434;6.786;2023-11-21T13:33:06;32.67;;;15.53;;
36855;SDS011;22788;51.434;6.786;2023-11-21T13:35:32;27.40;;;14.83;;
36855;SDS011;22788;51.434;6.786;2023-11-21T13:38:02;31.60;;;16.13;;
36855;SDS011;22788;51.434;6.786;2023-11-21T13:40:29;27.13;;;15.93;;
36855;SDS011;22788;51.434;6.786;2023-11-21T13:42:56;29.40;;;15.60;;
36855;SDS011;22788;51.434;6.786;2023-11-21T13:45:22;25.17;;;14.20;;
36855;SDS011;22788;51.434;6.786;2023-11-21T13:47:49;29.93;;;14.53;;
36855;SDS011;22788;51.434;6.786;2023-11-21T13:50:15;23.60;;;12.27;;
36855;SDS011;22788;51.434;6.786;2023-11-21T13:52:41;26.63;;;13.33;;
36855;SDS011;22788;51.434;6.786;2023-11-21T13:55:07;24.83;;;13.37;;
36855;SDS011;22788;51.434;6.786;2023-11-21T13:57:33;22.73;;;13.00;;
36855;SDS011;22788;51.434;6.786;2023-11-21T14:00:00;24.73;;;13.10;;
36855;SDS011;22788;51.434;6.786;2023-11-21T14:02:26;27.60;;;13.73;;
36855;SDS011;22788;51.434;6.786;2023-11-21T14:04:52;24.07;;;12.63;;
36855;SDS011;22788;51.434;6.786;2023-11-21T14:07:18;20.57;;;11.47;;
36855;SDS011;22788;51.434;6.786;2023-11-21T14:09:44;24.90;;;12.80;;
36855;SDS011;22788;51.434;6.786;2023-11-21T14:12:10;18.80;;;11.43;;
36855;SDS011;22788;51.434;6.786;2023-11-21T14:14:36;24.07;;;11.97;;
36855;SDS011;22788;51.434;6.786;2023-11-21T14:17:03;20.20;;;12.13;;
36855;SDS011;22788;51.434;6.786;2023-11-21T14:19:29;19.00;;;11.30;;
36855;SDS011;22788;51.434;6.786;2023-11-21T14:21:55;20.57;;;12.37;;
36855;SDS011;22788;51.434;6.786;2023-11-21T14:24:21;21.80;;;11.70;;
36855;SDS011;22788;51.434;6.786;2023-11-21T14:26:47;18.60;;;11.30;;
36855;SDS011;22788;51.434;6.786;2023-11-21T14:29:13;22.40;;;12.03;;
36855;SDS011;22788;51.434;6.786;2023-11-21T14:31:39;19.93;;;10.77;;
36855;SDS011;22788;51.434;6.786;2023-11-21T14:34:07;20.40;;;11.03;;